Terminal Aerodrome Forecast
Issued by NWS

Home | Current Version | Previous Version | Text Only | Print | Product List | Glossary On
Versions: 1 2 3 4 5 6 7 8 9 10 11 12 13 14 15
000
FTUS42 KGSP 241128
TAFAND
TAF
KAND 241128Z 2412/2512 07004KT P6SM SCT023 OVC050
     FM241400 09004KT P6SM BKN020
     FM241500 16005KT P6SM BKN045
     FM250800 14003KT P6SM BKN015=

USA.gov is the U.S. government's official web portal to all federal, state and local government web resources and services.